createdAt,value
2023-05-14T00:01:57.174Z,100894.13
2023-05-14T00:04:59.116Z,100888.56
2023-05-14T00:08:01.031Z,100881.22
2023-05-14T00:11:02.957Z,100878.22
2023-05-14T00:14:04.958Z,100881.50
2023-05-14T00:17:07.031Z,100880.84
2023-05-14T00:20:09.058Z,100876.06
2023-05-14T00:23:10.895Z,100875.56
2023-05-14T00:26:13.116Z,100865.16
2023-05-14T00:29:15.004Z,100873.91
2023-05-14T00:32:16.931Z,100863.13
2023-05-14T00:35:20.477Z,100875.00
2023-05-14T00:38:24.186Z,100866.63
2023-05-14T00:41:26.076Z,100865.62
2023-05-14T00:44:28.065Z,100866.88
2023-05-14T00:47:30.026Z,100868.78
2023-05-14T00:50:32.020Z,100865.34
2023-05-14T00:53:33.969Z,100857.75
2023-05-14T00:56:35.793Z,100853.78
2023-05-14T00:59:37.809Z,100859.63
2023-05-14T01:02:39.764Z,100857.47
2023-05-14T01:05:42.401Z,100858.03
2023-05-14T01:09:01.658Z,100840.63
2023-05-14T01:12:03.634Z,100845.91
2023-05-14T01:15:11.581Z,100833.78
2023-05-14T01:18:14.086Z,100830.59
2023-05-14T01:21:36.915Z,100829.31
2023-05-14T01:24:38.946Z,100828.88
2023-05-14T01:27:54.658Z,100821.41
2023-05-14T01:31:05.912Z,100817.25
2023-05-14T01:34:07.867Z,100821.97
2023-05-14T01:37:11.943Z,100828.38
2023-05-14T01:40:14.267Z,100817.66
2023-05-14T01:43:16.480Z,100807.03
2023-05-14T01:46:19.537Z,100805.75
2023-05-14T01:49:21.587Z,100801.56
2023-05-14T01:52:23.630Z,100794.28
2023-05-14T01:55:25.999Z,100793.75
2023-05-14T01:58:27.900Z,100789.56
2023-05-14T02:01:30.064Z,100770.06
2023-05-14T02:04:31.997Z,100774.88
2023-05-14T02:07:33.924Z,100768.87
2023-05-14T02:10:35.912Z,100760.62
2023-05-14T02:13:37.789Z,100765.22
2023-05-14T02:16:39.789Z,100763.59
2023-05-14T02:19:41.758Z,100760.41
2023-05-14T02:22:45.814Z,100770.88
2023-05-14T02:25:50.054Z,100771.06
2023-05-14T02:28:51.892Z,100761.53
2023-05-14T02:31:53.937Z,100754.69
2023-05-14T02:34:55.963Z,100761.06
2023-05-14T02:37:59.676Z,100765.13
2023-05-14T02:41:01.760Z,100766.37
2023-05-14T02:44:03.615Z,100755.63
2023-05-14T02:47:05.763Z,100760.97
2023-05-14T02:50:08.024Z,100757.16
2023-05-14T02:53:09.932Z,100750.50
2023-05-14T02:56:11.938Z,100759.97
2023-05-14T02:59:13.905Z,100749.72
2023-05-14T03:02:16.172Z,100756.50
2023-05-14T03:05:18.606Z,100762.34
2023-05-14T03:08:22.993Z,100760.06
2023-05-14T03:11:24.868Z,100743.38
2023-05-14T03:14:26.842Z,100737.81
2023-05-14T03:17:28.797Z,100733.28
2023-05-14T03:20:30.810Z,100738.78
2023-05-14T03:23:37.269Z,100734.25
2023-05-14T03:26:39.092Z,100745.37
2023-05-14T03:29:41.059Z,100751.00
2023-05-14T03:32:43.074Z,100749.41
2023-05-14T03:35:45.213Z,100754.28
2023-05-14T03:38:47.147Z,100749.31
2023-05-14T03:41:49.117Z,100754.25
2023-05-14T03:44:50.993Z,100755.06
2023-05-14T03:47:52.976Z,100754.03
2023-05-14T03:50:54.896Z,100755.41
2023-05-14T03:53:58.047Z,100755.94
2023-05-14T03:56:59.919Z,100750.13
2023-05-14T04:00:01.844Z,100739.84
2023-05-14T04:03:04.174Z,100729.88
2023-05-14T04:06:06.392Z,100729.91
2023-05-14T04:09:08.347Z,100732.47
2023-05-14T04:12:10.310Z,100739.34
2023-05-14T04:15:12.381Z,100742.63
2023-05-14T04:18:14.351Z,100737.97
2023-05-14T04:21:16.349Z,100743.72
2023-05-14T04:24:18.413Z,100737.38
2023-05-14T04:27:21.212Z,100736.19
2023-05-14T04:30:23.215Z,100732.50
2023-05-14T04:33:25.479Z,100728.69
2023-05-14T04:36:27.417Z,100729.34
2023-05-14T04:39:29.316Z,100720.06
2023-05-14T04:42:31.248Z,100721.19
2023-05-14T04:45:34.249Z,100729.66
2023-05-14T04:48:36.485Z,100724.56
2023-05-14T04:51:38.400Z,100728.69
2023-05-14T04:54:40.882Z,100730.78
2023-05-14T04:57:42.883Z,100719.22
2023-05-14T05:00:44.789Z,100725.34
2023-05-14T05:03:46.701Z,100724.72
2023-05-14T05:06:48.575Z,100715.50
2023-05-14T05:09:50.642Z,100712.97
2023-05-14T05:12:52.572Z,100722.94
2023-05-14T05:15:54.520Z,100715.13
2023-05-14T05:18:56.548Z,100721.25
2023-05-14T05:21:58.649Z,100712.19
2023-05-14T05:25:00.671Z,100715.78
2023-05-14T05:28:02.592Z,100703.56
2023-05-14T05:31:04.760Z,100711.13
2023-05-14T05:34:09.227Z,100697.78
2023-05-14T05:37:13.177Z,100707.22
2023-05-14T05:40:15.827Z,100711.91
2023-05-14T05:43:17.722Z,100714.44
2023-05-14T05:46:19.845Z,100703.06
2023-05-14T05:49:21.776Z,100694.78
2023-05-14T05:52:23.799Z,100705.50
2023-05-14T05:55:25.792Z,100704.69
2023-05-14T05:58:27.728Z,100708.97
2023-05-14T06:01:29.782Z,100701.56
2023-05-14T06:04:31.869Z,100700.75
2023-05-14T06:07:33.915Z,100708.94
2023-05-14T06:10:36.335Z,100719.31
2023-05-14T06:13:38.162Z,100719.09
2023-05-14T06:16:40.184Z,100710.19
2023-05-14T06:19:42.078Z,100712.00
2023-05-14T06:22:44.122Z,100720.03
2023-05-14T06:25:45.939Z,100712.50
2023-05-14T06:28:47.845Z,100724.19
2023-05-14T06:31:49.715Z,100714.66
2023-05-14T06:34:51.640Z,100723.62
2023-05-14T06:37:53.589Z,100727.53
2023-05-14T06:40:55.438Z,100720.25
2023-05-14T06:43:57.742Z,100721.25
2023-05-14T06:46:59.721Z,100715.31
2023-05-14T06:50:02.011Z,100702.50
2023-05-14T06:53:04.233Z,100699.09
2023-05-14T06:56:06.119Z,100700.66
2023-05-14T06:59:08.028Z,100694.69
2023-05-14T07:02:09.963Z,100699.69
2023-05-14T07:05:11.941Z,100687.47
2023-05-14T07:08:13.978Z,100681.84
2023-05-14T07:11:16.001Z,100684.75
2023-05-14T07:14:18.098Z,100676.12
2023-05-14T07:17:19.985Z,100677.59
2023-05-14T07:20:23.945Z,100678.75
2023-05-14T07:23:26.325Z,100677.72
2023-05-14T07:26:28.961Z,100670.16
2023-05-14T07:29:31.198Z,100665.50
2023-05-14T07:32:33.425Z,100657.31
2023-05-14T07:35:35.460Z,100658.19
2023-05-14T07:38:37.356Z,100651.72
2023-05-14T07:41:39.240Z,100644.22
2023-05-14T07:44:41.206Z,100652.28
2023-05-14T07:47:43.171Z,100664.34
2023-05-14T07:50:45.472Z,100656.91
2023-05-14T07:53:47.471Z,100655.38
2023-05-14T07:56:49.608Z,100646.34
2023-05-14T07:59:51.909Z,100647.37
2023-05-14T08:02:54.906Z,100630.88
2023-05-14T08:05:56.999Z,100634.88
2023-05-14T08:08:58.901Z,100627.81
2023-05-14T08:12:01.070Z,100627.25
2023-05-14T08:15:03.099Z,100623.84
2023-05-14T08:18:05.459Z,100623.28
2023-05-14T08:21:07.425Z,100608.41
2023-05-14T08:24:09.269Z,100607.63
2023-05-14T08:27:11.191Z,100607.81
2023-05-14T08:30:13.383Z,100617.13
2023-05-14T08:33:15.406Z,100597.31
2023-05-14T08:36:17.328Z,100596.53
2023-05-14T08:39:19.199Z,100598.66
2023-05-14T08:42:21.832Z,100588.53
2023-05-14T08:45:34.257Z,100589.53
2023-05-14T08:48:36.365Z,100588.88
2023-05-14T08:51:38.463Z,100571.91
2023-05-14T08:54:40.389Z,100558.81
2023-05-14T08:57:42.397Z,100568.69
2023-05-14T09:00:44.377Z,100567.44
2023-05-14T09:03:46.575Z,100571.28
2023-05-14T09:06:49.036Z,100578.19
2023-05-14T09:09:53.944Z,100565.34
2023-05-14T09:12:56.284Z,100576.19
2023-05-14T09:15:58.133Z,100567.97
2023-05-14T09:19:00.146Z,100577.78
2023-05-14T09:22:02.144Z,100565.44
2023-05-14T09:25:05.146Z,100559.84
2023-05-14T09:28:08.718Z,100559.41
2023-05-14T09:31:10.761Z,100563.28
2023-05-14T09:34:13.584Z,100558.81
2023-05-14T09:37:15.535Z,100555.16
2023-05-14T09:40:18.794Z,100550.41
2023-05-14T09:43:20.649Z,100550.94
2023-05-14T09:46:23.784Z,100558.87
2023-05-14T09:49:25.922Z,100539.44
2023-05-14T09:52:27.944Z,100533.97
2023-05-14T09:55:29.845Z,100528.25
2023-05-14T09:58:31.809Z,100533.97
2023-05-14T10:01:33.725Z,100532.31
2023-05-14T10:04:35.767Z,100531.94
2023-05-14T10:07:48.245Z,100522.56
2023-05-14T10:10:51.099Z,100514.75
2023-05-14T10:13:58.351Z,100501.13
2023-05-14T10:17:00.376Z,100495.53
2023-05-14T10:20:02.737Z,100478.91
2023-05-14T10:23:05.028Z,100460.63
2023-05-14T10:26:07.091Z,100456.91
2023-05-14T10:29:12.729Z,100436.16
2023-05-14T10:32:14.940Z,100425.62
2023-05-14T10:35:17.781Z,100426.78
2023-05-14T10:38:22.225Z,100447.31
2023-05-14T10:41:24.382Z,100465.81
2023-05-14T10:44:26.416Z,100461.50
2023-05-14T10:47:28.566Z,100466.00
2023-05-14T10:50:30.591Z,100462.19
2023-05-14T10:53:42.404Z,100464.50
2023-05-14T10:56:45.995Z,100453.78
2023-05-14T10:59:48.910Z,100445.84
2023-05-14T11:02:51.642Z,100452.62
2023-05-14T11:05:53.455Z,100442.78
2023-05-14T11:08:55.533Z,100445.44
2023-05-14T11:11:57.587Z,100447.59
2023-05-14T11:15:00.321Z,100446.31
2023-05-14T11:18:02.242Z,100437.75
2023-05-14T11:21:04.406Z,100432.09
2023-05-14T11:24:07.542Z,100427.47
2023-05-14T11:27:10.314Z,100415.28
2023-05-14T11:30:13.197Z,100425.34
2023-05-14T11:33:15.793Z,100429.16
2023-05-14T11:36:17.749Z,100429.84
2023-05-14T11:39:19.696Z,100428.03
2023-05-14T11:42:22.351Z,100427.16
2023-05-14T11:45:25.607Z,100422.34
2023-05-14T11:48:27.457Z,100426.03
2023-05-14T11:51:29.359Z,100423.28
2023-05-14T11:54:31.863Z,100416.69
2023-05-14T11:57:33.673Z,100421.09
2023-05-14T12:00:35.733Z,100416.84
2023-05-14T12:03:38.003Z,100408.81
2023-05-14T12:06:40.332Z,100402.97
2023-05-14T12:09:45.191Z,100394.66
2023-05-14T12:12:47.664Z,100389.84
2023-05-14T12:15:59.656Z,100387.50
2023-05-14T12:19:01.842Z,100384.00
2023-05-14T12:22:03.767Z,100379.81
2023-05-14T12:25:10.275Z,100375.28
2023-05-14T12:28:18.811Z,100369.28
2023-05-14T12:31:27.826Z,100366.66
2023-05-14T12:34:29.914Z,100359.63
2023-05-14T12:37:31.838Z,100353.03
2023-05-14T12:40:33.765Z,100363.25
2023-05-14T12:43:35.839Z,100363.84
2023-05-14T12:46:37.822Z,100358.94
2023-05-14T12:49:39.710Z,100358.56
2023-05-14T12:52:41.567Z,100363.19
2023-05-14T12:55:43.421Z,100357.75
2023-05-14T12:58:46.736Z,100348.38
2023-05-14T13:01:48.722Z,100347.38
2023-05-14T13:04:50.770Z,100325.22
2023-05-14T13:07:52.884Z,100331.97
2023-05-14T13:10:54.893Z,100316.88
2023-05-14T13:13:56.916Z,100322.00
2023-05-14T13:16:59.002Z,100318.13
2023-05-14T13:20:01.025Z,100313.06
2023-05-14T13:23:02.980Z,100312.00
2023-05-14T13:26:04.893Z,100310.44
2023-05-14T13:29:06.933Z,100305.72
2023-05-14T13:32:09.038Z,100298.19
2023-05-14T13:35:11.081Z,100294.69
2023-05-14T13:38:15.601Z,100286.69
2023-05-14T13:41:17.580Z,100289.22
2023-05-14T13:44:19.526Z,100273.34
2023-05-14T13:47:21.349Z,100270.16
2023-05-14T13:50:23.337Z,100267.09
2023-05-14T13:53:25.518Z,100267.91
2023-05-14T13:56:30.176Z,100258.53
2023-05-14T13:59:32.245Z,100262.00
2023-05-14T14:02:34.328Z,100246.00
2023-05-14T14:05:36.839Z,100242.88
2023-05-14T14:08:38.706Z,100250.41
2023-05-14T14:11:41.125Z,100247.50
2023-05-14T14:14:43.168Z,100242.78
2023-05-14T14:17:45.145Z,100232.06
2023-05-14T14:20:47.104Z,100230.09
2023-05-14T14:23:49.105Z,100240.22
2023-05-14T14:26:50.995Z,100240.97
2023-05-14T14:29:53.039Z,100235.56
2023-05-14T14:32:55.147Z,100238.59
2023-05-14T14:35:57.037Z,100239.44
2023-05-14T14:38:58.858Z,100236.41
2023-05-14T14:42:00.864Z,100236.63
2023-05-14T14:45:02.925Z,100229.91
2023-05-14T14:48:23.959Z,100231.41
2023-05-14T14:51:26.276Z,100223.37
2023-05-14T14:54:28.099Z,100212.56
2023-05-14T14:57:30.098Z,100222.34
2023-05-14T15:00:31.938Z,100222.81
2023-05-14T15:03:34.005Z,100221.03
2023-05-14T15:06:36.065Z,100214.78
2023-05-14T15:09:38.042Z,100202.75
2023-05-14T15:12:40.029Z,100196.66
2023-05-14T15:15:42.133Z,100215.12
2023-05-14T15:18:44.169Z,100195.97
2023-05-14T15:21:46.101Z,100192.16
2023-05-14T15:24:47.972Z,100175.44
2023-05-14T15:27:50.296Z,100181.41
2023-05-14T15:30:52.163Z,100179.63
2023-05-14T15:33:56.068Z,100168.59
2023-05-14T15:36:58.008Z,100175.47
2023-05-14T15:39:59.962Z,100177.22
2023-05-14T15:43:04.609Z,100181.97
2023-05-14T15:46:06.601Z,100180.31
2023-05-14T15:49:08.554Z,100176.47
2023-05-14T15:52:10.376Z,100171.50
2023-05-14T15:55:12.243Z,100170.47
2023-05-14T15:58:14.352Z,100155.94
2023-05-14T16:01:16.424Z,100149.47
2023-05-14T16:04:18.363Z,100132.16
2023-05-14T16:07:20.237Z,100122.63
2023-05-14T16:10:22.536Z,100119.16
2023-05-14T16:13:24.671Z,100108.78
2023-05-14T16:16:26.499Z,100108.69
2023-05-14T16:19:28.632Z,100116.59
2023-05-14T16:22:32.605Z,100127.81
2023-05-14T16:25:34.517Z,100126.28
2023-05-14T16:28:36.431Z,100127.50
2023-05-14T16:31:38.442Z,100123.81
2023-05-14T16:34:41.540Z,100129.81
2023-05-14T16:37:43.728Z,100121.19
2023-05-14T16:40:45.582Z,100126.22
2023-05-14T16:43:50.540Z,100113.66
2023-05-14T16:46:52.520Z,100112.47
2023-05-14T16:49:54.415Z,100096.31
2023-05-14T16:52:57.007Z,100094.03
2023-05-14T16:55:59.005Z,100093.41
2023-05-14T16:59:00.998Z,100081.44
2023-05-14T17:02:03.559Z,100074.63
2023-05-14T17:05:06.501Z,100082.88
2023-05-14T17:08:08.709Z,100071.91
2023-05-14T17:11:10.779Z,100072.97
2023-05-14T17:14:12.657Z,100070.91
2023-05-14T17:17:14.569Z,100075.31
2023-05-14T17:20:17.048Z,100062.69
2023-05-14T17:23:19.898Z,100054.84
2023-05-14T17:26:21.812Z,100043.22
2023-05-14T17:29:23.734Z,100053.63
2023-05-14T17:32:26.013Z,100056.22
2023-05-14T17:35:27.981Z,100051.09
2023-05-14T17:38:30.267Z,100047.91
2023-05-14T17:41:32.176Z,100032.97
2023-05-14T17:44:34.260Z,100028.41
2023-05-14T17:47:36.456Z,100039.00
2023-05-14T17:50:39.730Z,100027.47
2023-05-14T17:53:42.191Z,100032.84
2023-05-14T17:56:44.267Z,100022.50
2023-05-14T17:59:46.101Z,100025.50
2023-05-14T18:02:48.786Z,100015.34
2023-05-14T18:05:51.236Z,100010.91
2023-05-14T18:08:53.209Z,100000.44
2023-05-14T18:11:56.957Z,100007.44
2023-05-14T18:14:59.184Z,100000.69
2023-05-14T18:18:01.282Z,99990.84
2023-05-14T18:21:03.193Z,99993.31
2023-05-14T18:24:05.650Z,99995.75
2023-05-14T18:27:07.767Z,100005.16
2023-05-14T18:30:11.016Z,100002.72
2023-05-14T18:33:13.110Z,100011.75
2023-05-14T18:36:15.146Z,100019.31
2023-05-14T18:39:17.074Z,100010.03
2023-05-14T18:42:19.035Z,100019.44
2023-05-14T18:45:22.065Z,100018.03
2023-05-14T18:48:24.096Z,100021.44
2023-05-14T18:51:26.087Z,100018.75
2023-05-14T18:54:28.033Z,100014.56
2023-05-14T18:57:32.174Z,100014.69
2023-05-14T19:00:34.089Z,100002.69
2023-05-14T19:03:36.030Z,100006.41
2023-05-14T19:06:40.275Z,100010.97
2023-05-14T19:09:42.111Z,100008.31
2023-05-14T19:12:43.978Z,100011.66
2023-05-14T19:15:45.912Z,100007.56
2023-05-14T19:18:47.995Z,100000.63
2023-05-14T19:21:49.900Z,99992.78
2023-05-14T19:24:51.782Z,99991.91
2023-05-14T19:27:55.364Z,99998.06
2023-05-14T19:30:57.370Z,99985.16
2023-05-14T19:33:59.428Z,99987.34
2023-05-14T19:37:01.318Z,99977.13
2023-05-14T19:40:03.671Z,99986.41
2023-05-14T19:43:05.560Z,99983.59
2023-05-14T19:46:07.481Z,99992.31
2023-05-14T19:49:09.305Z,99986.31
2023-05-14T19:52:11.484Z,99969.94
2023-05-14T19:55:13.374Z,99969.00
2023-05-14T19:58:15.311Z,99967.50
2023-05-14T20:01:17.386Z,99976.00
2023-05-14T20:04:22.020Z,99978.75
2023-05-14T20:07:25.584Z,99973.34
2023-05-14T20:10:27.726Z,99963.97
2023-05-14T20:13:32.097Z,99963.59
2023-05-14T20:16:34.273Z,99964.91
2023-05-14T20:19:36.138Z,99958.91
2023-05-14T20:22:38.583Z,99949.31
2023-05-14T20:25:41.441Z,99951.78
2023-05-14T20:28:43.684Z,99946.75
2023-05-14T20:31:45.538Z,99955.28
2023-05-14T20:34:47.369Z,99957.63
2023-05-14T20:37:49.602Z,99949.09
2023-05-14T20:40:52.059Z,99935.28
2023-05-14T20:43:53.974Z,99941.25
2023-05-14T20:46:55.887Z,99925.72
2023-05-14T20:49:57.792Z,99921.91
2023-05-14T20:52:59.715Z,99922.84
2023-05-14T20:56:01.645Z,99918.00
2023-05-14T20:59:03.772Z,99921.97
2023-05-14T21:02:06.160Z,99910.69
2023-05-14T21:05:08.217Z,99907.75
2023-05-14T21:08:10.883Z,99903.47
2023-05-14T21:11:12.905Z,99894.81
2023-05-14T21:14:15.173Z,99893.00
2023-05-14T21:17:17.151Z,99898.00
2023-05-14T21:20:19.008Z,99892.09
2023-05-14T21:23:20.925Z,99884.28
2023-05-14T21:26:22.868Z,99888.56
2023-05-14T21:29:25.161Z,99887.16
2023-05-14T21:32:27.751Z,99885.09
2023-05-14T21:35:29.802Z,99877.19
2023-05-14T21:38:32.566Z,99867.75
2023-05-14T21:41:34.530Z,99862.06
2023-05-14T21:44:36.475Z,99841.06
2023-05-14T21:47:38.573Z,99835.22
2023-05-14T21:50:40.692Z,99821.00
2023-05-14T21:53:42.498Z,99826.88
2023-05-14T21:56:44.568Z,99826.84
2023-05-14T21:59:46.360Z,99824.44
2023-05-14T22:02:48.266Z,99824.22
2023-05-14T22:05:50.268Z,99822.78
2023-05-14T22:08:52.097Z,99830.84
2023-05-14T22:11:54.020Z,99826.78
2023-05-14T22:14:55.887Z,99812.78
2023-05-14T22:17:57.938Z,99818.25
2023-05-14T22:20:59.784Z,99831.94
2023-05-14T22:24:01.651Z,99831.28
2023-05-14T22:27:03.682Z,99828.19
2023-05-14T22:30:05.964Z,99824.81
2023-05-14T22:33:08.001Z,99824.78
2023-05-14T22:36:10.509Z,99825.50
2023-05-14T22:39:13.523Z,99819.50
2023-05-14T22:42:15.798Z,99824.81
2023-05-14T22:45:17.665Z,99814.34
2023-05-14T22:48:19.519Z,99828.16
2023-05-14T22:51:21.411Z,99819.91
2023-05-14T22:54:23.317Z,99820.56
2023-05-14T22:57:25.496Z,99828.41
2023-05-14T23:00:27.427Z,99822.81
2023-05-14T23:03:29.695Z,99822.06
2023-05-14T23:06:31.962Z,99817.28
2023-05-14T23:09:33.873Z,99817.41
2023-05-14T23:12:38.097Z,99816.13
2023-05-14T23:15:40.040Z,99818.31
2023-05-14T23:18:42.171Z,99812.59
2023-05-14T23:21:44.196Z,99807.56
2023-05-14T23:24:48.160Z,99801.66
2023-05-14T23:27:50.154Z,99792.91
2023-05-14T23:30:52.026Z,99788.13
2023-05-14T23:33:53.911Z,99772.78
2023-05-14T23:36:55.853Z,99764.19
2023-05-14T23:39:57.694Z,99762.69
2023-05-14T23:43:00.343Z,99765.47
2023-05-14T23:46:02.588Z,99760.81
2023-05-14T23:49:04.713Z,99759.47
2023-05-14T23:52:06.745Z,99759.84
2023-05-14T23:55:08.842Z,99745.22
2023-05-14T23:58:10.720Z,99738.38
